DLH953 LFPG-EDDF
Flight info
| Callsign | DLH953 |
|---|---|
| Flight time | N/A |
| Altitude | 21000 |
| Route | RANUX DCT VALEK/N0453F230 DCT LIPNI UN858 LIMGO Z111 RAMOB IMCOM1D |
| Aircraft | A306/H-SDE3FGHIRWY/LB1 |
Departure
| Time | 2026-05-01 08:54 |
|---|---|
| Airport | Charles de Gaulle International Airport (LFPG) |
Arrival
| Time | N/A |
|---|---|
| Airport | Frankfurt Main Airport (EDDF) |
| Time | Latitude | Longitude | Altitude | Speed | Heading |
|---|---|---|---|---|---|
| 2026-05-01 08:27 | 49.00135 | 2.57625 | 360 ft | 0 kts | 357° |
| 2026-05-01 08:41 | 49.00133 | 2.57625 | 360 ft | 1 kts | 357° |
| 2026-05-01 08:41 | 49.00127 | 2.57625 | 365 ft | 0 kts | 357° |
| 2026-05-01 08:42 | 49.00108 | 2.57627 | 360 ft | 3 kts | 357° |
| 2026-05-01 08:42 | 49.00091 | 2.57628 | 360 ft | 2 kts | 355° |
| 2026-05-01 08:43 | 49.00073 | 2.57638 | 365 ft | 3 kts | 298° |
| 2026-05-01 08:43 | 49.00069 | 2.57653 | 364 ft | 0 kts | 269° |
| 2026-05-01 08:48 | 49.00069 | 2.57645 | 365 ft | 2 kts | 268° |
| 2026-05-01 08:48 | 49.00066 | 2.57567 | 365 ft | 12 kts | 266° |
| 2026-05-01 08:48 | 49.00056 | 2.57449 | 363 ft | 11 kts | 259° |
| 2026-05-01 08:49 | 49.00033 | 2.57326 | 361 ft | 13 kts | 236° |
| 2026-05-01 08:49 | 48.99977 | 2.57313 | 362 ft | 9 kts | 136° |
| 2026-05-01 08:49 | 48.99965 | 2.57430 | 362 ft | 14 kts | 85° |
| 2026-05-01 08:49 | 48.99975 | 2.57614 | 366 ft | 21 kts | 85° |
| 2026-05-01 08:50 | 48.99985 | 2.57850 | 368 ft | 23 kts | 86° |
| 2026-05-01 08:50 | 48.99994 | 2.58085 | 365 ft | 22 kts | 87° |
| 2026-05-01 08:50 | 49.00010 | 2.58296 | 365 ft | 19 kts | 83° |
| 2026-05-01 08:50 | 49.00020 | 2.58476 | 366 ft | 16 kts | 86° |
| 2026-05-01 08:51 | 49.00027 | 2.58637 | 363 ft | 15 kts | 85° |
| 2026-05-01 08:51 | 49.00036 | 2.58794 | 364 ft | 15 kts | 85° |
| 2026-05-01 08:51 | 49.00045 | 2.58951 | 360 ft | 15 kts | 85° |
| 2026-05-01 08:51 | 49.00054 | 2.59108 | 363 ft | 15 kts | 85° |
| 2026-05-01 08:52 | 49.00063 | 2.59271 | 366 ft | 18 kts | 85° |
| 2026-05-01 08:52 | 49.00064 | 2.59449 | 366 ft | 14 kts | 109° |
| 2026-05-01 08:52 | 49.00001 | 2.59541 | 363 ft | 13 kts | 127° |
| 2026-05-01 08:52 | 48.99942 | 2.59646 | 360 ft | 12 kts | 158° |
| 2026-05-01 08:53 | 48.99864 | 2.59666 | 362 ft | 13 kts | 175° |
| 2026-05-01 08:53 | 48.99805 | 2.59609 | 366 ft | 11 kts | 244° |
| 2026-05-01 08:53 | 48.99791 | 2.59434 | 364 ft | 39 kts | 265° |
| 2026-05-01 08:53 | 48.99740 | 2.58552 | 362 ft | 124 kts | 266° |
| 2026-05-01 08:54 | 48.99652 | 2.56843 | 463 ft | 195 kts | 263° |
| 2026-05-01 08:54 | 48.99456 | 2.54613 | 1278 ft | 219 kts | 256° |
| 2026-05-01 08:54 | 48.98908 | 2.52523 | 2788 ft | 216 kts | 239° |
| 2026-05-01 08:54 | 48.98302 | 2.50275 | 3712 ft | 238 kts | 257° |
| 2026-05-01 08:55 | 48.98320 | 2.47651 | 4321 ft | 267 kts | 274° |
| 2026-05-01 08:55 | 48.98493 | 2.44684 | 5006 ft | 286 kts | 272° |
| 2026-05-01 08:55 | 48.98513 | 2.41646 | 5840 ft | 294 kts | 264° |
| 2026-05-01 08:55 | 48.98077 | 2.38586 | 6786 ft | 298 kts | 246° |
| 2026-05-01 08:56 | 48.96950 | 2.35957 | 7754 ft | 299 kts | 223° |
| 2026-05-01 08:56 | 48.95199 | 2.34293 | 8788 ft | 300 kts | 201° |
| 2026-05-01 08:56 | 48.93215 | 2.33228 | 9792 ft | 304 kts | 197° |
| 2026-05-01 08:56 | 48.91182 | 2.32260 | 10671 ft | 308 kts | 196° |
| 2026-05-01 08:57 | 48.89122 | 2.31290 | 11543 ft | 312 kts | 195° |
| 2026-05-01 08:57 | 48.86992 | 2.30658 | 12414 ft | 314 kts | 184° |
| 2026-05-01 08:57 | 48.84835 | 2.31031 | 13273 ft | 315 kts | 161° |
| 2026-05-01 08:57 | 48.82910 | 2.32617 | 14155 ft | 318 kts | 142° |
| 2026-05-01 08:58 | 48.81473 | 2.35171 | 14937 ft | 322 kts | 122° |
| 2026-05-01 08:58 | 48.80655 | 2.38354 | 15699 ft | 329 kts | 105° |
| 2026-05-01 08:58 | 48.80502 | 2.41842 | 16455 ft | 337 kts | 90° |
| 2026-05-01 08:58 | 48.80735 | 2.45398 | 17183 ft | 341 kts | 87° |
| 2026-05-01 08:59 | 48.81021 | 2.48996 | 17904 ft | 345 kts | 87° |
| 2026-05-01 08:59 | 48.81296 | 2.52637 | 18602 ft | 349 kts | 88° |
| 2026-05-01 08:59 | 48.81555 | 2.56263 | 19196 ft | 352 kts | 88° |
| 2026-05-01 08:59 | 48.81814 | 2.60026 | 19822 ft | 355 kts | 88° |
| 2026-05-01 09:00 | 48.82061 | 2.63703 | 20407 ft | 357 kts | 88° |
| 2026-05-01 09:00 | 48.82311 | 2.67492 | 20849 ft | 359 kts | 88° |
| 2026-05-01 09:00 | 48.82558 | 2.71275 | 20980 ft | 360 kts | 88° |
| 2026-05-01 09:00 | 48.82803 | 2.75053 | 20990 ft | 361 kts | 88° |
| 2026-05-01 09:01 | 48.83046 | 2.78845 | 20991 ft | 361 kts | 88° |
| 2026-05-01 09:01 | 48.83289 | 2.82643 | 20992 ft | 362 kts | 88° |
| 2026-05-01 09:01 | 48.83530 | 2.86439 | 20993 ft | 362 kts | 88° |
| 2026-05-01 09:01 | 48.83770 | 2.90251 | 20993 ft | 362 kts | 88° |
| 2026-05-01 09:02 | 48.84008 | 2.94036 | 20991 ft | 362 kts | 88° |
| 2026-05-01 09:02 | 48.84292 | 2.97842 | 20994 ft | 363 kts | 84° |
| 2026-05-01 09:02 | 48.84942 | 3.01566 | 20995 ft | 368 kts | 72° |
| 2026-05-01 09:02 | 48.86105 | 3.05007 | 20999 ft | 372 kts | 62° |
| 2026-05-01 09:03 | 48.87547 | 3.08284 | 20988 ft | 373 kts | 59° |
| 2026-05-01 09:03 | 48.89032 | 3.11529 | 20994 ft | 374 kts | 59° |
| 2026-05-01 09:03 | 48.90512 | 3.14767 | 20994 ft | 374 kts | 59° |
| 2026-05-01 09:03 | 48.91993 | 3.18025 | 20996 ft | 374 kts | 59° |
| 2026-05-01 09:04 | 48.93466 | 3.21278 | 20997 ft | 374 kts | 59° |
| 2026-05-01 09:04 | 48.94941 | 3.24544 | 20998 ft | 374 kts | 59° |
| 2026-05-01 09:04 | 48.96392 | 3.27764 | 20999 ft | 374 kts | 59° |
| 2026-05-01 09:04 | 48.97862 | 3.31031 | 21000 ft | 374 kts | 59° |
| 2026-05-01 09:05 | 48.99339 | 3.34319 | 21000 ft | 374 kts | 59° |
| 2026-05-01 09:05 | 49.00799 | 3.37574 | 21004 ft | 374 kts | 59° |
| 2026-05-01 09:05 | 49.02264 | 3.40848 | 21005 ft | 374 kts | 59° |
| 2026-05-01 09:05 | 49.03730 | 3.44124 | 20995 ft | 374 kts | 59° |
| 2026-05-01 09:06 | 49.05192 | 3.47397 | 21000 ft | 374 kts | 59° |
| 2026-05-01 09:06 | 49.06656 | 3.50680 | 21002 ft | 375 kts | 59° |
| 2026-05-01 09:06 | 49.07990 | 3.54069 | 20992 ft | 371 kts | 68° |
| 2026-05-01 09:06 | 49.08766 | 3.57781 | 21008 ft | 366 kts | 82° |
| 2026-05-01 09:07 | 49.09105 | 3.61626 | 21002 ft | 365 kts | 86° |
| 2026-05-01 09:07 | 49.09357 | 3.65467 | 21004 ft | 364 kts | 87° |
| 2026-05-01 09:07 | 49.09602 | 3.69327 | 20998 ft | 365 kts | 87° |
| 2026-05-01 09:07 | 49.09850 | 3.73176 | 21003 ft | 365 kts | 87° |
| 2026-05-01 09:08 | 49.10102 | 3.77030 | 21007 ft | 365 kts | 87° |
| 2026-05-01 09:08 | 49.10356 | 3.80872 | 21006 ft | 365 kts | 87° |
| 2026-05-01 09:08 | 49.10610 | 3.84733 | 21010 ft | 365 kts | 87° |
| 2026-05-01 09:08 | 49.10861 | 3.88579 | 21010 ft | 365 kts | 87° |
| 2026-05-01 09:09 | 49.11113 | 3.92426 | 21010 ft | 365 kts | 87° |
| 2026-05-01 09:09 | 49.11364 | 3.96277 | 21008 ft | 365 kts | 87° |
| 2026-05-01 09:09 | 49.11613 | 4.00133 | 21012 ft | 365 kts | 87° |
| 2026-05-01 09:09 | 49.11861 | 4.03984 | 21012 ft | 365 kts | 87° |
| 2026-05-01 09:10 | 49.12108 | 4.07844 | 21011 ft | 365 kts | 87° |
| 2026-05-01 09:10 | 49.12353 | 4.11702 | 21013 ft | 365 kts | 87° |
| 2026-05-01 09:10 | 49.12596 | 4.15543 | 21015 ft | 365 kts | 87° |
| 2026-05-01 09:10 | 49.12840 | 4.19405 | 21071 ft | 365 kts | 87° |
| 2026-05-01 09:11 | 49.13079 | 4.23217 | 21252 ft | 365 kts | 87° |
| 2026-05-01 09:11 | 49.13322 | 4.27124 | 21271 ft | 376 kts | 87° |
| 2026-05-01 09:11 | 49.13572 | 4.31194 | 21276 ft | 393 kts | 87° |